PWSweather.com
Personal Weather Stations
Station Observations
WAREHAM1
West Wareham, MA 02576

West Wareham, MA 02576

Lat: 41.7961059, Lon: -70.775612

Elevation: 88

Station Type: Davis Vantage Vue

http://www.gateway2capecod.com

High Low Average
Temperature 57.7°F14.3°F 56.8°F13.8°F 57.3°F14.1°F
Dew Point 56.8°F13.8°F 55.8°F13.2°F 56.3°F13.5°F
Winds 0.9 mph E1.4 mph E 0.9 mph 1.4 mph 0.9 mph 1.4 mph
Wind Gusts 7.0 mph11.3 mph 4.0 mph6.4 mph 4.9 mph7.9 mph
Humidity 97% 96% 96%
Pressure 30.02 in1016.60 in 30.01 in1016.30 in -
Precipitation 0.00 in0.00 in - -
Hour Temp Dew Point Humidity Winds Wind Gusts Pressure Precip Precip Rate Daily Precip Total
12:06 AM 60.4°F15.8°C 59.4°F15.2°C 96% 0.9 mph WNW1.4 kmh WNW 4.0 mph6.4 kmh 30.00 in1015.9 mb 0.00 in0.0 mm 0.00 in/hr0.0 mm/hr 0.00 in0.0 mm
12:16 AM 60.3°F15.7°C 59.2°F15.1°C 96% Calm Calm 2.0 mph3.2 kmh 30.00 in1015.9 mb 0.00 in0.0 mm 0.00 in/hr0.0 mm/hr 0.00 in0.0 mm
12:26 AM 60.1°F15.6°C 59.0°F15.0°C 96% 0.9 mph ESE1.4 kmh ESE 4.0 mph6.4 kmh 30.00 in1015.9 mb 0.00 in0.0 mm 0.00 in/hr0.0 mm/hr 0.00 in0.0 mm
12:36 AM 60.1°F15.6°C 59.0°F15.0°C 96% 0.9 mph NNW1.4 kmh NNW 6.0 mph9.7 kmh 29.99 in1015.6 mb 0.00 in0.0 mm 0.00 in/hr0.0 mm/hr 0.00 in0.0 mm
12:46 AM 60.1°F15.6°C 59.0°F15.0°C 96% 0.9 mph NW1.4 kmh NW 2.0 mph3.2 kmh 29.99 in1015.6 mb 0.00 in0.0 mm 0.00 in/hr0.0 mm/hr 0.00 in0.0 mm
12:56 AM 60.1°F15.6°C 59.0°F15.0°C 96% 0.9 mph WNW1.4 kmh WNW 4.0 mph6.4 kmh 29.99 in1015.6 mb 0.00 in0.0 mm 0.00 in/hr0.0 mm/hr 0.00 in0.0 mm
01:06 AM 60.1°F15.6°C 59.0°F15.0°C 96% Calm Calm 4.0 mph6.4 kmh 30.00 in1015.9 mb 0.00 in0.0 mm 0.00 in/hr0.0 mm/hr 0.00 in0.0 mm
01:16 AM 59.9°F15.5°C 58.8°F14.9°C 96% 0.9 mph E1.4 kmh E 4.0 mph6.4 kmh 30.00 in1015.9 mb 0.00 in0.0 mm 0.00 in/hr0.0 mm/hr 0.00 in0.0 mm
01:26 AM 59.7°F15.4°C 58.6°F14.8°C 96% 0.9 mph ENE1.4 kmh ENE 4.9 mph7.9 kmh 29.99 in1015.6 mb 0.00 in0.0 mm 0.00 in/hr0.0 mm/hr 0.00 in0.0 mm
01:36 AM 59.5°F15.3°C 58.5°F14.7°C 96% 0.9 mph E1.4 kmh E 4.0 mph6.4 kmh 30.00 in1015.9 mb 0.00 in0.0 mm 0.00 in/hr0.0 mm/hr 0.00 in0.0 mm
01:46 AM 59.5°F15.3°C 58.5°F14.7°C 96% 0.9 mph WNW1.4 kmh WNW 4.0 mph6.4 kmh 30.01 in1016.3 mb 0.00 in0.0 mm 0.00 in/hr0.0 mm/hr 0.00 in0.0 mm
01:56 AM 59.4°F15.2°C 58.3°F14.6°C 96% Calm Calm 2.0 mph3.2 kmh 30.01 in1016.3 mb 0.00 in0.0 mm 0.00 in/hr0.0 mm/hr 0.00 in0.0 mm
02:06 AM 59.2°F15.1°C 58.1°F14.5°C 96% Calm Calm 2.0 mph3.2 kmh 30.01 in1016.3 mb 0.00 in0.0 mm 0.00 in/hr0.0 mm/hr 0.00 in0.0 mm
02:16 AM 59.2°F15.1°C 58.1°F14.5°C 96% 0.9 mph NW1.4 kmh NW 2.9 mph4.7 kmh 30.00 in1015.9 mb 0.00 in0.0 mm 0.00 in/hr0.0 mm/hr 0.00 in0.0 mm
02:26 AM 59.0°F15.0°C 57.9°F14.4°C 96% 0.9 mph NW1.4 kmh NW 4.0 mph6.4 kmh 30.00 in1015.9 mb 0.00 in0.0 mm 0.00 in/hr0.0 mm/hr 0.00 in0.0 mm
02:36 AM 59.0°F15.0°C 57.9°F14.4°C 96% Calm Calm 2.0 mph3.2 kmh 30.00 in1015.9 mb 0.00 in0.0 mm 0.00 in/hr0.0 mm/hr 0.00 in0.0 mm
02:46 AM 58.8°F14.9°C 57.7°F14.3°C 96% Calm Calm 2.0 mph3.2 kmh 30.00 in1015.9 mb 0.00 in0.0 mm 0.00 in/hr0.0 mm/hr 0.00 in0.0 mm
02:56 AM 58.8°F14.9°C 57.7°F14.3°C 96% Calm Calm 0.9 mph1.4 kmh 29.99 in1015.6 mb 0.00 in0.0 mm 0.00 in/hr0.0 mm/hr 0.00 in0.0 mm
03:06 AM 58.6°F14.8°C 57.6°F14.2°C 96% Calm Calm 2.0 mph3.2 kmh 29.99 in1015.6 mb 0.00 in0.0 mm 0.00 in/hr0.0 mm/hr 0.00 in0.0 mm
03:16 AM 58.6°F14.8°C 57.6°F14.2°C 96% 0.9 mph NW1.4 kmh NW 4.0 mph6.4 kmh 29.99 in1015.6 mb 0.00 in0.0 mm 0.00 in/hr0.0 mm/hr 0.00 in0.0 mm
03:26 AM 58.5°F14.7°C 57.4°F14.1°C 96% 0.9 mph NW1.4 kmh NW 4.0 mph6.4 kmh 29.99 in1015.6 mb 0.00 in0.0 mm 0.00 in/hr0.0 mm/hr 0.00 in0.0 mm
03:36 AM 58.5°F14.7°C 57.4°F14.1°C 96% 0.9 mph 1.4 kmh 2.9 mph4.7 kmh 29.98 in1015.2 mb 0.00 in0.0 mm 0.00 in/hr0.0 mm/hr 0.00 in0.0 mm
03:46 AM 58.5°F14.7°C 57.4°F14.1°C 96% 0.9 mph NW1.4 kmh NW 2.9 mph4.7 kmh 29.98 in1015.2 mb 0.00 in0.0 mm 0.00 in/hr0.0 mm/hr 0.00 in0.0 mm
03:56 AM 58.3°F14.6°C 57.2°F14.0°C 96% 0.9 mph NE1.4 kmh NE 6.0 mph9.7 kmh 29.98 in1015.2 mb 0.00 in0.0 mm 0.00 in/hr0.0 mm/hr 0.00 in0.0 mm
04:06 AM 58.3°F14.6°C 57.2°F14.0°C 96% 0.9 mph NW1.4 kmh NW 4.0 mph6.4 kmh 29.98 in1015.2 mb 0.00 in0.0 mm 0.00 in/hr0.0 mm/hr 0.00 in0.0 mm
04:16 AM 58.3°F14.6°C 57.2°F14.0°C 96% 0.9 mph NE1.4 kmh NE 4.9 mph7.9 kmh 29.98 in1015.2 mb 0.00 in0.0 mm 0.00 in/hr0.0 mm/hr 0.00 in0.0 mm
04:26 AM 58.3°F14.6°C 57.2°F14.0°C 96% 0.9 mph NNW1.4 kmh NNW 4.0 mph6.4 kmh 29.98 in1015.2 mb 0.00 in0.0 mm 0.00 in/hr0.0 mm/hr 0.00 in0.0 mm
04:36 AM 58.3°F14.6°C 57.2°F14.0°C 96% 0.9 mph WNW1.4 kmh WNW 4.0 mph6.4 kmh 29.98 in1015.2 mb 0.00 in0.0 mm 0.00 in/hr0.0 mm/hr 0.00 in0.0 mm
04:46 AM 58.3°F14.6°C 57.2°F14.0°C 96% 0.9 mph NW1.4 kmh NW 2.9 mph4.7 kmh 29.98 in1015.2 mb 0.00 in0.0 mm 0.00 in/hr0.0 mm/hr 0.00 in0.0 mm
04:56 AM 58.3°F14.6°C 57.2°F14.0°C 96% 0.9 mph ENE1.4 kmh ENE 2.9 mph4.7 kmh 29.99 in1015.6 mb 0.00 in0.0 mm 0.00 in/hr0.0 mm/hr 0.00 in0.0 mm
05:06 AM 58.3°F14.6°C 57.2°F14.0°C 96% Calm Calm 2.0 mph3.2 kmh 29.99 in1015.6 mb 0.00 in0.0 mm 0.00 in/hr0.0 mm/hr 0.00 in0.0 mm
05:16 AM 58.3°F14.6°C 57.2°F14.0°C 96% Calm Calm 2.0 mph3.2 kmh 29.99 in1015.6 mb 0.00 in0.0 mm 0.00 in/hr0.0 mm/hr 0.00 in0.0 mm
05:26 AM 58.3°F14.6°C 57.2°F14.0°C 96% 0.9 mph NW1.4 kmh NW 6.0 mph9.7 kmh 29.99 in1015.6 mb 0.00 in0.0 mm 0.00 in/hr0.0 mm/hr 0.00 in0.0 mm
05:36 AM 58.3°F14.6°C 57.2°F14.0°C 96% 0.9 mph WSW1.4 kmh WSW 4.0 mph6.4 kmh 29.99 in1015.6 mb 0.00 in0.0 mm 0.00 in/hr0.0 mm/hr 0.00 in0.0 mm
05:46 AM 58.1°F14.5°C 57.0°F13.9°C 96% 0.9 mph WNW1.4 kmh WNW 4.9 mph7.9 kmh 30.00 in1015.9 mb 0.00 in0.0 mm 0.00 in/hr0.0 mm/hr 0.00 in0.0 mm
05:56 AM 57.9°F14.4°C 56.8°F13.8°C 96% 0.9 mph SW1.4 kmh SW 3.0 mph4.8 kmh 30.00 in1015.9 mb 0.00 in0.0 mm 0.00 in/hr0.0 mm/hr 0.00 in0.0 mm
06:06 AM 57.9°F14.4°C 56.8°F13.8°C 96% 0.9 mph NW1.4 kmh NW 2.9 mph4.7 kmh 30.00 in1015.9 mb 0.00 in0.0 mm 0.00 in/hr0.0 mm/hr 0.00 in0.0 mm
06:16 AM 57.9°F14.4°C 56.8°F13.8°C 96% Calm Calm 2.0 mph3.2 kmh 30.01 in1016.3 mb 0.00 in0.0 mm 0.00 in/hr0.0 mm/hr 0.00 in0.0 mm
06:26 AM 57.7°F14.3°C 56.7°F13.7°C 96% 0.9 mph NW1.4 kmh NW 8.1 mph13.0 kmh 30.00 in1015.9 mb 0.00 in0.0 mm 0.00 in/hr0.0 mm/hr 0.00 in0.0 mm
06:36 AM 57.7°F14.3°C 56.7°F13.7°C 96% 0.9 mph WNW1.4 kmh WNW 8.1 mph13.0 kmh 30.01 in1016.3 mb 0.00 in0.0 mm 0.00 in/hr0.0 mm/hr 0.00 in0.0 mm
06:46 AM 57.7°F14.3°C 56.7°F13.7°C 96% 0.9 mph ENE1.4 kmh ENE 2.9 mph4.7 kmh 30.01 in1016.3 mb 0.00 in0.0 mm 0.00 in/hr0.0 mm/hr 0.00 in0.0 mm
06:56 AM 57.7°F14.3°C 56.7°F13.7°C 96% 0.9 mph WNW1.4 kmh WNW 2.9 mph4.7 kmh 30.01 in1016.3 mb 0.00 in0.0 mm 0.00 in/hr0.0 mm/hr 0.00 in0.0 mm
07:06 AM 57.7°F14.3°C 56.7°F13.7°C 96% 0.9 mph NE1.4 kmh NE 4.0 mph6.4 kmh 30.02 in1016.6 mb 0.00 in0.0 mm 0.00 in/hr0.0 mm/hr 0.00 in0.0 mm
07:16 AM 57.7°F14.3°C 56.7°F13.7°C 96% 0.9 mph NW1.4 kmh NW 4.9 mph7.9 kmh 30.02 in1016.6 mb 0.00 in0.0 mm 0.00 in/hr0.0 mm/hr 0.00 in0.0 mm
07:26 AM 57.7°F14.3°C 56.7°F13.7°C 96% 0.9 mph ENE1.4 kmh ENE 6.0 mph9.7 kmh 30.02 in1016.6 mb 0.00 in0.0 mm 0.00 in/hr0.0 mm/hr 0.00 in0.0 mm
07:36 AM 57.7°F14.3°C 56.7°F13.7°C 96% 0.9 mph N1.4 kmh N 2.9 mph4.7 kmh 30.02 in1016.6 mb 0.00 in0.0 mm 0.00 in/hr0.0 mm/hr 0.00 in0.0 mm
07:46 AM 57.6°F14.2°C 56.5°F13.6°C 96% 0.9 mph NNW1.4 kmh NNW 2.9 mph4.7 kmh 30.02 in1016.6 mb 0.00 in0.0 mm 0.00 in/hr0.0 mm/hr 0.00 in0.0 mm
07:56 AM 57.7°F14.3°C 56.8°F13.8°C 97% 0.9 mph E1.4 kmh E 5.0 mph8.0 kmh 30.02 in1016.6 mb 0.00 in0.0 mm 0.00 in/hr0.0 mm/hr 0.00 in0.0 mm
08:06 AM 57.7°F14.3°C 56.8°F13.8°C 97% 0.9 mph E1.4 kmh E 4.9 mph7.9 kmh 30.02 in1016.6 mb 0.00 in0.0 mm 0.00 in/hr0.0 mm/hr 0.00 in0.0 mm
08:16 AM 57.7°F14.3°C 56.8°F13.8°C 97% 0.9 mph WSW1.4 kmh WSW 4.0 mph6.4 kmh 30.03 in1016.9 mb 0.00 in0.0 mm 0.00 in/hr0.0 mm/hr 0.00 in0.0 mm
08:26 AM 57.7°F14.3°C 56.8°F13.8°C 97% 0.9 mph N1.4 kmh N 4.0 mph6.4 kmh 30.03 in1016.9 mb 0.01 in0.3 mm 0.06 in/hr1.5 mm/hr 0.01 in0.3 mm
08:36 AM 57.7°F14.3°C 56.7°F13.7°C 96% 2.0 mph W3.2 kmh W 7.0 mph11.3 kmh 30.03 in1016.9 mb 0.01 in0.3 mm 0.00 in/hr0.0 mm/hr 0.01 in0.3 mm
08:46 AM 57.7°F14.3°C 56.8°F13.8°C 97% Calm Calm 4.9 mph7.9 kmh 30.03 in1016.9 mb 0.01 in0.3 mm 0.00 in/hr0.0 mm/hr 0.02 in0.5 mm
08:56 AM 57.7°F14.3°C 56.8°F13.8°C 97% 0.9 mph ENE1.4 kmh ENE 7.0 mph11.3 kmh 30.03 in1016.9 mb 0.02 in0.5 mm 0.06 in/hr1.5 mm/hr 0.02 in0.5 mm
09:06 AM 57.7°F14.3°C 56.8°F13.8°C 97% 0.9 mph ENE1.4 kmh ENE 4.9 mph7.9 kmh 30.03 in1016.9 mb 0.02 in0.5 mm 0.00 in/hr0.0 mm/hr 0.02 in0.5 mm
09:16 AM 57.7°F14.3°C 56.8°F13.8°C 97% 0.9 mph W1.4 kmh W 4.9 mph7.9 kmh 30.04 in1017.3 mb 0.02 in0.5 mm 0.00 in/hr0.0 mm/hr 0.02 in0.5 mm
09:26 AM 57.7°F14.3°C 56.8°F13.8°C 97% Calm Calm 3.0 mph4.8 kmh 30.04 in1017.3 mb 0.01 in0.3 mm 0.00 in/hr0.0 mm/hr 0.02 in0.5 mm
09:36 AM 57.7°F14.3°C 56.8°F13.8°C 97% 0.9 mph E1.4 kmh E 5.0 mph8.0 kmh 30.03 in1016.9 mb 0.01 in0.3 mm 0.00 in/hr0.0 mm/hr 0.02 in0.5 mm
09:46 AM 57.7°F14.3°C 56.8°F13.8°C 97% 0.9 mph NNW1.4 kmh NNW 4.0 mph6.4 kmh 30.03 in1016.9 mb 0.00 in0.0 mm 0.00 in/hr0.0 mm/hr 0.02 in0.5 mm
09:56 AM 57.7°F14.3°C 56.8°F13.8°C 97% 0.9 mph WNW1.4 kmh WNW 2.9 mph4.7 kmh 30.03 in1016.9 mb 0.00 in0.0 mm 0.00 in/hr0.0 mm/hr 0.02 in0.5 mm
10:07 AM 57.7°F14.3°C 56.8°F13.8°C 97% 0.9 mph E1.4 kmh E 6.0 mph9.7 kmh 30.03 in1016.9 mb 0.01 in0.3 mm 0.01 in/hr0.3 mm/hr 0.03 in0.8 mm
10:17 AM 57.9°F14.4°C 57.0°F13.9°C 97% 0.9 mph NW1.4 kmh NW 2.9 mph4.7 kmh 30.04 in1017.3 mb 0.01 in0.3 mm 0.00 in/hr0.0 mm/hr 0.03 in0.8 mm
10:27 AM 57.7°F14.3°C 56.8°F13.8°C 97% 0.9 mph E1.4 kmh E 4.0 mph6.4 kmh 30.03 in1016.9 mb 0.01 in0.3 mm 0.00 in/hr0.0 mm/hr 0.03 in0.8 mm
10:37 AM 57.7°F14.3°C 56.8°F13.8°C 97% 0.9 mph WNW1.4 kmh WNW 4.0 mph6.4 kmh 30.03 in1016.9 mb 0.01 in0.3 mm 0.00 in/hr0.0 mm/hr 0.03 in0.8 mm
10:47 AM 57.7°F14.3°C 56.8°F13.8°C 97% 0.9 mph NW1.4 kmh NW 6.0 mph9.7 kmh 30.03 in1016.9 mb 0.01 in0.3 mm 0.00 in/hr0.0 mm/hr 0.03 in0.8 mm
10:57 AM 57.7°F14.3°C 56.8°F13.8°C 97% 0.9 mph ENE1.4 kmh ENE 7.0 mph11.3 kmh 30.03 in1016.9 mb 0.00 in0.0 mm 0.00 in/hr0.0 mm/hr 0.03 in0.8 mm
11:07 AM 57.9°F14.4°C 57.0°F13.9°C 97% 0.9 mph WNW1.4 kmh WNW 7.0 mph11.3 kmh 30.03 in1016.9 mb 0.00 in0.0 mm 0.00 in/hr0.0 mm/hr 0.03 in0.8 mm
11:17 AM 57.7°F14.3°C 56.7°F13.7°C 96% 0.9 mph ENE1.4 kmh ENE 6.0 mph9.7 kmh 30.03 in1016.9 mb 0.00 in0.0 mm 0.00 in/hr0.0 mm/hr 0.03 in0.8 mm
11:27 AM 57.9°F14.4°C 57.0°F13.9°C 97% 0.9 mph ESE1.4 kmh ESE 4.9 mph7.9 kmh 30.02 in1016.6 mb 0.00 in0.0 mm 0.00 in/hr0.0 mm/hr 0.03 in0.8 mm
11:37 AM 57.9°F14.4°C 57.0°F13.9°C 97% 0.9 mph N1.4 kmh N 4.0 mph6.4 kmh 30.03 in1016.9 mb 0.00 in0.0 mm 0.00 in/hr0.0 mm/hr 0.03 in0.8 mm
11:47 AM 57.9°F14.4°C 56.8°F13.8°C 96% 0.9 mph WNW1.4 kmh WNW 5.0 mph8.0 kmh 30.02 in1016.6 mb 0.00 in0.0 mm 0.00 in/hr0.0 mm/hr 0.03 in0.8 mm
11:57 AM 57.9°F14.4°C 56.8°F13.8°C 96% 2.0 mph ENE3.2 kmh ENE 6.0 mph9.7 kmh 30.02 in1016.6 mb 0.00 in0.0 mm 0.00 in/hr0.0 mm/hr 0.03 in0.8 mm
12:07 PM 57.9°F14.4°C 56.8°F13.8°C 96% 2.0 mph NW3.2 kmh NW 4.9 mph7.9 kmh 30.02 in1016.6 mb 0.00 in0.0 mm 0.00 in/hr0.0 mm/hr 0.03 in0.8 mm
12:17 PM 57.9°F14.4°C 56.8°F13.8°C 96% 0.9 mph E1.4 kmh E 5.0 mph8.0 kmh 30.03 in1016.9 mb 0.00 in0.0 mm 0.00 in/hr0.0 mm/hr 0.03 in0.8 mm
12:27 PM 57.9°F14.4°C 56.8°F13.8°C 96% 0.9 mph NE1.4 kmh NE 5.0 mph8.0 kmh 30.02 in1016.6 mb 0.00 in0.0 mm 0.00 in/hr0.0 mm/hr 0.03 in0.8 mm
12:37 PM 57.9°F14.4°C 56.8°F13.8°C 96% 2.0 mph N3.2 kmh N 8.9 mph14.3 kmh 30.02 in1016.6 mb 0.00 in0.0 mm 0.00 in/hr0.0 mm/hr 0.03 in0.8 mm
12:47 PM 58.3°F14.6°C 57.2°F14.0°C 96% 2.0 mph E3.2 kmh E 6.9 mph11.1 kmh 30.01 in1016.3 mb 0.01 in0.3 mm 0.06 in/hr1.5 mm/hr 0.04 in1.0 mm
12:57 PM 57.9°F14.4°C 56.8°F13.8°C 96% 0.9 mph WSW1.4 kmh WSW 6.0 mph9.7 kmh 30.01 in1016.3 mb 0.01 in0.3 mm 0.00 in/hr0.0 mm/hr 0.04 in1.0 mm
01:07 PM 58.3°F14.6°C 57.2°F14.0°C 96% 0.9 mph NE1.4 kmh NE 4.9 mph7.9 kmh 30.01 in1016.3 mb 0.01 in0.3 mm 0.00 in/hr0.0 mm/hr 0.04 in1.0 mm
01:17 PM 58.3°F14.6°C 57.2°F14.0°C 96% 0.9 mph NE1.4 kmh NE 4.9 mph7.9 kmh 30.01 in1016.3 mb 0.02 in0.5 mm 0.06 in/hr1.5 mm/hr 0.05 in1.3 mm
01:27 PM 58.3°F14.6°C 57.2°F14.0°C 96% 2.0 mph N3.2 kmh N 4.9 mph7.9 kmh 30.00 in1015.9 mb 0.02 in0.5 mm 0.00 in/hr0.0 mm/hr 0.05 in1.3 mm
01:37 PM 58.3°F14.6°C 57.2°F14.0°C 96% 2.0 mph SW3.2 kmh SW 4.9 mph7.9 kmh 30.00 in1015.9 mb 0.02 in0.5 mm 0.00 in/hr0.0 mm/hr 0.05 in1.3 mm
01:47 PM 58.3°F14.6°C 57.2°F14.0°C 96% 0.9 mph ENE1.4 kmh ENE 4.0 mph6.4 kmh 30.01 in1016.3 mb 0.01 in0.3 mm 0.00 in/hr0.0 mm/hr 0.05 in1.3 mm
01:57 PM 58.1°F14.5°C 57.0°F13.9°C 96% 2.0 mph NE3.2 kmh NE 8.1 mph13.0 kmh 30.00 in1015.9 mb 0.01 in0.3 mm 0.00 in/hr0.0 mm/hr 0.06 in1.5 mm
02:07 PM 58.1°F14.5°C 57.0°F13.9°C 96% 0.9 mph NE1.4 kmh NE 9.0 mph14.5 kmh 30.00 in1015.9 mb 0.02 in0.5 mm 0.01 in/hr0.3 mm/hr 0.06 in1.5 mm
02:17 PM 58.1°F14.5°C 57.0°F13.9°C 96% 2.0 mph E3.2 kmh E 9.0 mph14.5 kmh 29.99 in1015.6 mb 0.01 in0.3 mm 0.00 in/hr0.0 mm/hr 0.06 in1.5 mm
02:27 PM 58.1°F14.5°C 57.0°F13.9°C 96% 0.9 mph E1.4 kmh E 6.0 mph9.7 kmh 29.99 in1015.6 mb 0.02 in0.5 mm 0.06 in/hr1.5 mm/hr 0.07 in1.8 mm
02:37 PM 57.9°F14.4°C 56.8°F13.8°C 96% 2.0 mph ESE3.2 kmh ESE 4.9 mph7.9 kmh 29.99 in1015.6 mb 0.02 in0.5 mm 0.00 in/hr0.0 mm/hr 0.07 in1.8 mm
02:47 PM 57.9°F14.4°C 56.8°F13.8°C 96% 0.9 mph NE1.4 kmh NE 4.9 mph7.9 kmh 29.99 in1015.6 mb 0.02 in0.5 mm 0.00 in/hr0.0 mm/hr 0.07 in1.8 mm
02:57 PM 57.9°F14.4°C 56.8°F13.8°C 96% 2.9 mph NE4.7 kmh NE 8.1 mph13.0 kmh 29.99 in1015.6 mb 0.02 in0.5 mm 0.00 in/hr0.0 mm/hr 0.08 in2.0 mm
03:07 PM 57.7°F14.3°C 56.7°F13.7°C 96% 2.0 mph NE3.2 kmh NE 6.0 mph9.7 kmh 29.98 in1015.2 mb 0.02 in0.5 mm 0.00 in/hr0.0 mm/hr 0.08 in2.0 mm
03:17 PM 57.7°F14.3°C 56.7°F13.7°C 96% 2.0 mph E3.2 kmh E 10.0 mph16.1 kmh 29.98 in1015.2 mb 0.02 in0.5 mm 0.00 in/hr0.0 mm/hr 0.08 in2.0 mm
03:27 PM 57.7°F14.3°C 56.7°F13.7°C 96% 2.0 mph W3.2 kmh W 8.1 mph13.0 kmh 29.98 in1015.2 mb 0.01 in0.3 mm 0.00 in/hr0.0 mm/hr 0.08 in2.0 mm
03:37 PM 57.7°F14.3°C 56.7°F13.7°C 96% 2.0 mph NE3.2 kmh NE 6.0 mph9.7 kmh 29.98 in1015.2 mb 0.01 in0.3 mm 0.00 in/hr0.0 mm/hr 0.08 in2.0 mm
03:47 PM 57.9°F14.4°C 56.8°F13.8°C 96% 2.9 mph NE4.7 kmh NE 9.0 mph14.5 kmh 29.98 in1015.2 mb 0.01 in0.3 mm 0.00 in/hr0.0 mm/hr 0.08 in2.0 mm
03:57 PM 57.9°F14.4°C 56.8°F13.8°C 96% 2.0 mph E3.2 kmh E 8.1 mph13.0 kmh 29.98 in1015.2 mb 0.01 in0.3 mm 0.00 in/hr0.0 mm/hr 0.09 in2.3 mm
04:07 PM 57.9°F14.4°C 56.8°F13.8°C 96% 0.9 mph E1.4 kmh E 6.0 mph9.7 kmh 29.98 in1015.2 mb 0.01 in0.3 mm 0.00 in/hr0.0 mm/hr 0.09 in2.3 mm
04:17 PM 57.7°F14.3°C 56.7°F13.7°C 96% 0.9 mph NW1.4 kmh NW 6.0 mph9.7 kmh 29.99 in1015.6 mb 0.01 in0.3 mm 0.00 in/hr0.0 mm/hr 0.09 in2.3 mm
04:27 PM 57.7°F14.3°C 56.7°F13.7°C 96% 0.9 mph W1.4 kmh W 9.0 mph14.5 kmh 29.99 in1015.6 mb 0.01 in0.3 mm 0.00 in/hr0.0 mm/hr 0.09 in2.3 mm
04:37 PM 57.7°F14.3°C 56.7°F13.7°C 96% 0.9 mph NE1.4 kmh NE 5.0 mph8.0 kmh 29.99 in1015.6 mb 0.01 in0.3 mm 0.00 in/hr0.0 mm/hr 0.09 in2.3 mm
04:47 PM 57.6°F14.2°C 56.5°F13.6°C 96% 0.9 mph NNW1.4 kmh NNW 6.0 mph9.7 kmh 29.99 in1015.6 mb 0.01 in0.3 mm 0.00 in/hr0.0 mm/hr 0.09 in2.3 mm
04:57 PM 57.6°F14.2°C 56.5°F13.6°C 96% 2.0 mph NW3.2 kmh NW 6.0 mph9.7 kmh 30.00 in1015.9 mb 0.00 in0.0 mm 0.00 in/hr0.0 mm/hr 0.09 in2.3 mm
05:07 PM 57.6°F14.2°C 56.5°F13.6°C 96% 0.9 mph NW1.4 kmh NW 4.0 mph6.4 kmh 30.00 in1015.9 mb 0.00 in0.0 mm 0.00 in/hr0.0 mm/hr 0.09 in2.3 mm
05:17 PM 57.4°F14.1°C 56.3°F13.5°C 96% 0.9 mph NE1.4 kmh NE 6.0 mph9.7 kmh 29.99 in1015.6 mb 0.00 in0.0 mm 0.00 in/hr0.0 mm/hr 0.09 in2.3 mm
05:27 PM 57.2°F14.0°C 56.1°F13.4°C 96% 0.9 mph NNW1.4 kmh NNW 6.0 mph9.7 kmh 29.99 in1015.6 mb 0.00 in0.0 mm 0.00 in/hr0.0 mm/hr 0.09 in2.3 mm
05:37 PM 57.0°F13.9°C 55.9°F13.3°C 96% 0.9 mph NE1.4 kmh NE 4.9 mph7.9 kmh 30.00 in1015.9 mb 0.00 in0.0 mm 0.00 in/hr0.0 mm/hr 0.09 in2.3 mm
05:47 PM 57.0°F13.9°C 55.9°F13.3°C 96% 0.9 mph NW1.4 kmh NW 4.9 mph7.9 kmh 30.01 in1016.3 mb 0.00 in0.0 mm 0.00 in/hr0.0 mm/hr 0.09 in2.3 mm
05:57 PM 57.0°F13.9°C 55.9°F13.3°C 96% 0.9 mph NW1.4 kmh NW 8.0 mph12.9 kmh 30.01 in1016.3 mb 0.00 in0.0 mm 0.00 in/hr0.0 mm/hr 0.09 in2.3 mm
06:07 PM 56.8°F13.8°C 55.8°F13.2°C 96% 0.9 mph NE1.4 kmh NE 6.0 mph9.7 kmh 30.01 in1016.3 mb 0.00 in0.0 mm 0.00 in/hr0.0 mm/hr 0.09 in2.3 mm
06:17 PM 56.8°F13.8°C 55.8°F13.2°C 96% 0.9 mph NW1.4 kmh NW 4.9 mph7.9 kmh 30.02 in1016.6 mb 0.00 in0.0 mm 0.00 in/hr0.0 mm/hr 0.09 in2.3 mm
06:27 PM 56.8°F13.8°C 55.8°F13.2°C 96% 0.9 mph WSW1.4 kmh WSW 4.0 mph6.4 kmh 30.02 in1016.6 mb 0.00 in0.0 mm 0.00 in/hr0.0 mm/hr 0.09 in2.3 mm
06:37 PM 56.8°F13.8°C 55.8°F13.2°C 96% 0.9 mph NNE1.4 kmh NNE 4.0 mph6.4 kmh 30.01 in1016.3 mb 0.00 in0.0 mm 0.00 in/hr0.0 mm/hr 0.09 in2.3 mm
06:47 PM 56.8°F13.8°C 55.8°F13.2°C 96% 0.9 mph W1.4 kmh W 6.0 mph9.7 kmh 30.01 in1016.3 mb 0.00 in0.0 mm 0.00 in/hr0.0 mm/hr 0.09 in2.3 mm
06:57 PM 56.7°F13.7°C 55.6°F13.1°C 96% 2.0 mph NW3.2 kmh NW 5.0 mph8.0 kmh 30.01 in1016.3 mb 0.00 in0.0 mm 0.00 in/hr0.0 mm/hr 0.09 in2.3 mm
07:07 PM 56.7°F13.7°C 55.6°F13.1°C 96% 0.9 mph NW1.4 kmh NW 6.0 mph9.7 kmh 30.01 in1016.3 mb 0.00 in0.0 mm 0.00 in/hr0.0 mm/hr 0.09 in2.3 mm
07:17 PM 56.7°F13.7°C 55.6°F13.1°C 96% 2.0 mph E3.2 kmh E 6.0 mph9.7 kmh 30.01 in1016.3 mb 0.00 in0.0 mm 0.00 in/hr0.0 mm/hr 0.09 in2.3 mm
07:27 PM 56.8°F13.8°C 55.8°F13.2°C 96% 0.9 mph NE1.4 kmh NE 4.9 mph7.9 kmh 30.01 in1016.3 mb 0.00 in0.0 mm 0.00 in/hr0.0 mm/hr 0.09 in2.3 mm
07:37 PM 56.7°F13.7°C 55.6°F13.1°C 96% 0.9 mph N1.4 kmh N 4.9 mph7.9 kmh 30.01 in1016.3 mb 0.00 in0.0 mm 0.00 in/hr0.0 mm/hr 0.09 in2.3 mm
07:47 PM 56.8°F13.8°C 55.8°F13.2°C 96% 0.9 mph N1.4 kmh N 8.1 mph13.0 kmh 30.01 in1016.3 mb 0.00 in0.0 mm 0.00 in/hr0.0 mm/hr 0.09 in2.3 mm
07:57 PM 56.8°F13.8°C 55.8°F13.2°C 96% 0.9 mph WNW1.4 kmh WNW 6.9 mph11.1 kmh 30.01 in1016.3 mb 0.00 in0.0 mm 0.00 in/hr0.0 mm/hr 0.09 in2.3 mm